Time;durP1;ratioP1;P1;durP2;ratioP2;P2;SDS_P1;SDS_P2;PMS_P1;PMS_P2;Temp;Humidity;BMP_temperature;BMP_pressure;BME280_temperature;BME280_humidity;BME280_pressure;Samples;Min_cycle;Max_cycle;Signal;HPM_P1;HPM_P2
2023/09/05 00:00:16;;;;;;;;;;;16.00;99.90;;;;;;5072349;28;20440;-41
2023/09/05 00:02:43;;;;;;;;;;;16.00;99.90;;;;;;5072242;28;19937;-43
2023/09/05 00:05:09;;;;;;;;;;;15.90;99.90;;;;;;5071743;28;20271;-42
2023/09/05 00:07:35;;;;;;;;;;;15.90;99.90;;;;;;5072251;28;19927;-43
2023/09/05 00:10:04;;;;;;;;;;;15.90;99.90;;;;;;5072102;28;19912;-41
2023/09/05 00:12:30;;;;;;;;;;;15.90;99.90;;;;;;5072549;28;19916;-41
2023/09/05 00:14:55;;;;;;;;;;;15.90;99.90;;;;;;5071583;28;19927;-41
2023/09/05 00:17:21;;;;;;;;;;;15.90;99.90;;;;;;5071248;28;19935;-44
2023/09/05 00:19:47;;;;;;;;;;;15.90;99.90;;;;;;5070989;28;19999;-44
2023/09/05 00:22:13;;;;;;;;;;;15.90;99.90;;;;;;5072283;28;19927;-46
2023/09/05 00:24:39;;;;;;;;;;;15.90;99.90;;;;;;5071452;28;19916;-43
2023/09/05 00:27:11;;;;;;;;;;;15.90;99.90;;;;;;5072014;28;19912;-42
2023/09/05 00:29:40;;;;;;;;;;;15.80;99.90;;;;;;5070846;28;19941;-46
2023/09/05 00:32:06;;;;;;;;;;;15.80;99.90;;;;;;5071722;28;19947;-41
2023/09/05 00:34:34;;;;;;;;;;;15.80;99.90;;;;;;5071891;28;19963;-43
2023/09/05 00:37:00;;;;;;;;;;;15.80;99.90;;;;;;5065249;28;19920;-41
2023/09/05 00:39:29;;;;;;;;;;;15.80;99.90;;;;;;5071114;28;20003;-44
2023/09/05 00:41:58;;;;;;;;;;;15.80;99.90;;;;;;5071177;28;20442;-41
2023/09/05 00:44:24;;;;;;;;;;;15.70;99.90;;;;;;5071710;28;19943;-42
2023/09/05 00:46:50;;;;;;;;;;;15.70;99.90;;;;;;5071651;28;20391;-42
2023/09/05 00:49:16;;;;;;;;;;;15.70;99.90;;;;;;5067395;28;19921;-43
2023/09/05 00:51:43;;;;;;;;;;;15.60;99.90;;;;;;5072376;28;19908;-43
2023/09/05 00:54:09;;;;;;;;;;;15.60;99.90;;;;;;5071348;28;19956;-42
2023/09/05 00:56:35;;;;;;;;;;;15.60;99.90;;;;;;5071739;28;19920;-44
2023/09/05 00:59:01;;;;;;;;;;;15.60;99.90;;;;;;5071915;28;19966;-41
2023/09/05 01:01:27;;;;;;;;;;;15.60;99.90;;;;;;5071856;28;19912;-42
2023/09/05 01:03:54;;;;;;;;;;;15.60;99.90;;;;;;5070694;28;19948;-43
2023/09/05 01:06:32;;;;;;;;;;;15.60;99.90;;;;;;5071833;28;19916;-43
2023/09/05 01:09:04;;;;;;;;;;;15.60;99.90;;;;;;5068503;28;20349;-42
2023/09/05 01:11:29;;;;;;;;;;;15.60;99.90;;;;;;5071523;28;20390;-41
2023/09/05 01:13:55;;;;;;;;;;;15.60;99.90;;;;;;5071487;28;19913;-42
2023/09/05 01:16:20;;;;;;;;;;;15.60;99.90;;;;;;5071326;28;19913;-43
2023/09/05 01:18:46;;;;;;;;;;;15.60;99.90;;;;;;5070991;28;19919;-44
2023/09/05 01:21:18;;;;;;;;;;;15.60;99.90;;;;;;5070872;28;19912;-41
2023/09/05 01:23:53;;;;;;;;;;;15.50;99.90;;;;;;5052188;28;20000;-41
2023/09/05 01:26:19;;;;;;;;;;;15.50;99.90;;;;;;5069680;28;20363;-44
2023/09/05 01:28:45;;;;;;;;;;;15.50;99.90;;;;;;5071206;28;19966;-42
2023/09/05 01:31:11;;;;;;;;;;;15.50;99.90;;;;;;5074533;28;19935;-42
2023/09/05 01:33:37;;;;;;;;;;;15.50;99.90;;;;;;5075760;28;20359;-41
2023/09/05 01:36:03;;;;;;;;;;;15.40;99.90;;;;;;5074067;28;20003;-42
2023/09/05 01:38:28;;;;;;;;;;;15.40;99.90;;;;;;5075057;28;20402;-44
2023/09/05 01:40:54;;;;;;;;;;;15.40;99.90;;;;;;5074472;28;20004;-42
2023/09/05 01:43:19;;;;;;;;;;;15.40;99.90;;;;;;5074438;28;19990;-41
2023/09/05 01:45:45;;;;;;;;;;;15.40;99.90;;;;;;5074884;28;19954;-42
2023/09/05 01:48:10;;;;;;;;;;;15.40;99.90;;;;;;5074153;28;19955;-43
2023/09/05 01:50:36;;;;;;;;;;;15.40;99.90;;;;;;5073922;28;19920;-42
2023/09/05 01:53:01;;;;;;;;;;;15.30;99.90;;;;;;5074604;28;19912;-41
2023/09/05 01:55:26;;;;;;;;;;;15.30;99.90;;;;;;5074642;28;19939;-43
2023/09/05 01:57:52;;;;;;;;;;;15.40;99.90;;;;;;5074476;28;19956;-42
2023/09/05 02:00:18;;;;;;;;;;;15.30;99.90;;;;;;5074467;28;21988;-44
2023/09/05 02:02:43;;;;;;;;;;;15.30;99.90;;;;;;5075099;28;19909;-42
2023/09/05 02:05:09;;;;;;;;;;;15.30;99.90;;;;;;5074493;28;20008;-43
2023/09/05 02:07:34;;;;;;;;;;;15.30;99.90;;;;;;5074112;28;19920;-42
2023/09/05 02:09:59;;;;;;;;;;;15.30;99.90;;;;;;5074137;28;19927;-43
2023/09/05 02:12:25;;;;;;;;;;;15.30;99.90;;;;;;5074009;28;20276;-41
2023/09/05 02:14:50;;;;;;;;;;;15.30;99.90;;;;;;5074371;28;19913;-44
2023/09/05 02:17:20;;;;;;;;;;;15.30;99.90;;;;;;5074021;28;19913;-42
2023/09/05 02:19:46;;;;;;;;;;;15.20;99.90;;;;;;5074424;28;19970;-41
2023/09/05 02:22:11;;;;;;;;;;;15.20;99.90;;;;;;5074401;28;19950;-43
2023/09/05 02:24:37;;;;;;;;;;;15.20;99.90;;;;;;5073183;28;19927;-42
2023/09/05 02:27:02;;;;;;;;;;;15.20;99.90;;;;;;5074234;28;20362;-42
2023/09/05 02:29:28;;;;;;;;;;;15.20;99.90;;;;;;5073802;28;20445;-42
2023/09/05 02:31:53;;;;;;;;;;;15.10;99.90;;;;;;5074608;28;19914;-43
2023/09/05 02:34:19;;;;;;;;;;;15.20;99.90;;;;;;5073359;28;19912;-41
2023/09/05 02:36:44;;;;;;;;;;;15.10;99.90;;;;;;5074045;28;19916;-41
2023/09/05 02:39:10;;;;;;;;;;;15.10;99.90;;;;;;5073899;28;19999;-44
2023/09/05 02:41:35;;;;;;;;;;;15.10;99.90;;;;;;5072856;28;19934;-43
2023/09/05 02:44:01;;;;;;;;;;;15.10;99.90;;;;;;5072250;28;20290;-43
2023/09/05 02:46:26;;;;;;;;;;;15.00;99.90;;;;;;5073640;28;20036;-43
2023/09/05 02:48:52;;;;;;;;;;;15.00;99.90;;;;;;5073712;28;19924;-42
2023/09/05 02:51:17;;;;;;;;;;;15.00;99.90;;;;;;5074102;28;20007;-42
2023/09/05 02:53:43;;;;;;;;;;;15.00;99.90;;;;;;5073347;28;19913;-45
2023/09/05 02:56:08;;;;;;;;;;;15.00;99.90;;;;;;5073284;28;20268;-43
2023/09/05 02:58:34;;;;;;;;;;;15.00;99.90;;;;;;5073074;28;19963;-42
2023/09/05 03:01:00;;;;;;;;;;;14.90;99.90;;;;;;5072977;28;19921;-41
2023/09/05 03:03:26;;;;;;;;;;;14.90;99.90;;;;;;5073309;28;19913;-43
2023/09/05 03:05:52;;;;;;;;;;;14.90;99.90;;;;;;5072898;28;20343;-41
2023/09/05 03:08:17;;;;;;;;;;;14.80;99.90;;;;;;5073234;28;20462;-41
2023/09/05 03:10:43;;;;;;;;;;;14.80;99.90;;;;;;5073010;28;20283;-43
2023/09/05 03:13:08;;;;;;;;;;;14.80;99.90;;;;;;5072745;28;19912;-42
2023/09/05 03:15:34;;;;;;;;;;;14.80;99.90;;;;;;5072421;28;19955;-42
2023/09/05 03:17:59;;;;;;;;;;;14.80;99.90;;;;;;5073024;28;20394;-41
2023/09/05 03:20:25;;;;;;;;;;;14.70;99.90;;;;;;5073390;28;19952;-42
2023/09/05 03:22:52;;;;;;;;;;;14.70;99.90;;;;;;5072625;28;20241;-43
2023/09/05 03:25:17;;;;;;;;;;;14.70;99.90;;;;;;5073029;28;19912;-41
2023/09/05 03:27:43;;;;;;;;;;;14.70;99.90;;;;;;5072702;28;19924;-42
2023/09/05 03:30:09;;;;;;;;;;;14.70;99.90;;;;;;5073053;28;19912;-42
2023/09/05 03:32:35;;;;;;;;;;;14.70;99.90;;;;;;5073414;28;19916;-43
2023/09/05 03:35:00;;;;;;;;;;;14.70;99.90;;;;;;5072207;28;19919;-44
2023/09/05 03:37:26;;;;;;;;;;;14.70;99.90;;;;;;5072294;28;20430;-44
2023/09/05 03:39:51;;;;;;;;;;;14.70;99.90;;;;;;5072839;28;19920;-41
2023/09/05 03:42:17;;;;;;;;;;;14.70;99.90;;;;;;5073079;28;20011;-43
2023/09/05 03:44:43;;;;;;;;;;;14.70;99.90;;;;;;5072613;28;19927;-43
2023/09/05 03:47:08;;;;;;;;;;;14.60;99.90;;;;;;5071941;28;19920;-42
2023/09/05 03:49:34;;;;;;;;;;;14.70;99.90;;;;;;5072710;28;19924;-42
2023/09/05 03:52:00;;;;;;;;;;;14.70;99.90;;;;;;5071698;28;20271;-42
2023/09/05 03:54:25;;;;;;;;;;;14.60;99.90;;;;;;5071758;28;19916;-45
2023/09/05 03:56:51;;;;;;;;;;;14.60;99.90;;;;;;5072050;28;19919;-42
2023/09/05 03:59:16;;;;;;;;;;;14.60;99.90;;;;;;5072506;28;19982;-43
2023/09/05 04:01:41;;;;;;;;;;;14.60;99.90;;;;;;5071825;28;19922;-46
2023/09/05 04:04:08;;;;;;;;;;;14.60;99.90;;;;;;5072229;28;19920;-45
2023/09/05 04:06:33;;;;;;;;;;;14.60;99.90;;;;;;5072215;28;20011;-47
2023/09/05 04:08:59;;;;;;;;;;;14.60;99.90;;;;;;5071695;28;20031;-42
2023/09/05 04:11:24;;;;;;;;;;;14.60;99.90;;;;;;5071798;28;19924;-42
2023/09/05 04:13:50;;;;;;;;;;;14.60;99.90;;;;;;5071467;28;20015;-43
2023/09/05 04:16:15;;;;;;;;;;;14.60;99.90;;;;;;5071740;28;20394;-46
2023/09/05 04:18:41;;;;;;;;;;;14.60;99.90;;;;;;5071462;28;19924;-41
2023/09/05 04:21:06;;;;;;;;;;;14.60;99.90;;;;;;5072822;28;19962;-43
2023/09/05 04:23:32;;;;;;;;;;;14.60;99.90;;;;;;5072607;28;19913;-41
2023/09/05 04:25:58;;;;;;;;;;;14.60;99.90;;;;;;5071629;28;19917;-47
2023/09/05 04:28:24;;;;;;;;;;;14.60;99.90;;;;;;5072292;28;19924;-42
2023/09/05 04:30:50;;;;;;;;;;;14.60;99.90;;;;;;5072385;28;19975;-41
2023/09/05 04:33:16;;;;;;;;;;;14.60;99.90;;;;;;5072060;28;20318;-45
2023/09/05 04:35:41;;;;;;;;;;;14.60;99.90;;;;;;5072272;28;19920;-41
2023/09/05 04:38:07;;;;;;;;;;;14.60;99.90;;;;;;5072141;28;19912;-43
2023/09/05 04:40:32;;;;;;;;;;;14.60;99.90;;;;;;5072330;28;19986;-42
2023/09/05 04:42:58;;;;;;;;;;;14.60;99.90;;;;;;5071267;28;19912;-42
2023/09/05 04:45:24;;;;;;;;;;;14.60;99.90;;;;;;5071123;28;20418;-40
2023/09/05 04:47:49;;;;;;;;;;;14.60;99.90;;;;;;5071262;28;19970;-43
2023/09/05 04:50:15;;;;;;;;;;;14.60;99.90;;;;;;5072599;28;19947;-44
2023/09/05 04:52:40;;;;;;;;;;;14.60;99.90;;;;;;5071739;28;20501;-43
2023/09/05 04:55:06;;;;;;;;;;;14.60;99.90;;;;;;5071938;28;19912;-42
2023/09/05 04:57:31;;;;;;;;;;;14.60;99.90;;;;;;5072194;28;20264;-42
2023/09/05 04:59:57;;;;;;;;;;;14.60;99.90;;;;;;5071561;28;19916;-41
2023/09/05 05:02:24;;;;;;;;;;;14.60;99.90;;;;;;5071008;28;20362;-43
2023/09/05 05:04:50;;;;;;;;;;;14.60;99.90;;;;;;5072966;28;19923;-43
2023/09/05 05:07:15;;;;;;;;;;;14.60;99.90;;;;;;5075103;28;19913;-42
2023/09/05 05:09:41;;;;;;;;;;;14.60;99.90;;;;;;5074483;28;20267;-42
2023/09/05 05:12:07;;;;;;;;;;;14.60;99.90;;;;;;5075231;28;19920;-46
2023/09/05 05:14:32;;;;;;;;;;;14.60;99.90;;;;;;5075778;28;19916;-42
2023/09/05 05:16:58;;;;;;;;;;;14.60;99.90;;;;;;5074456;28;19953;-44
2023/09/05 05:19:24;;;;;;;;;;;14.60;99.90;;;;;;5074082;28;19986;-43
2023/09/05 05:21:50;;;;;;;;;;;14.70;99.90;;;;;;5072802;28;20422;-41
2023/09/05 05:24:15;;;;;;;;;;;14.70;99.90;;;;;;5075323;28;19913;-41
2023/09/05 05:26:41;;;;;;;;;;;14.60;99.90;;;;;;5073988;28;19963;-43
2023/09/05 05:29:07;;;;;;;;;;;14.70;99.90;;;;;;5074416;28;20002;-41
2023/09/05 05:31:33;;;;;;;;;;;14.70;99.90;;;;;;5074149;28;20333;-43
2023/09/05 05:33:59;;;;;;;;;;;14.70;99.90;;;;;;5073575;28;19913;-42
2023/09/05 05:36:25;;;;;;;;;;;14.70;99.90;;;;;;5073506;28;19913;-45
2023/09/05 05:38:50;;;;;;;;;;;14.70;99.90;;;;;;5072734;28;19912;-46
2023/09/05 05:41:16;;;;;;;;;;;14.70;99.90;;;;;;5073606;28;19919;-42
2023/09/05 05:43:41;;;;;;;;;;;14.70;99.90;;;;;;5072592;28;19978;-45
2023/09/05 05:46:09;;;;;;;;;;;14.70;99.90;;;;;;5072903;28;19995;-43
2023/09/05 05:48:35;;;;;;;;;;;14.80;99.90;;;;;;5074718;28;19971;-42
2023/09/05 05:51:00;;;;;;;;;;;14.80;99.90;;;;;;5073918;28;20349;-42
2023/09/05 05:53:26;;;;;;;;;;;14.80;99.90;;;;;;5073766;28;19967;-43
2023/09/05 05:55:51;;;;;;;;;;;14.80;99.90;;;;;;5073605;28;19927;-44
2023/09/05 05:58:17;;;;;;;;;;;14.90;99.90;;;;;;5073259;28;19912;-41
2023/09/05 06:00:45;;;;;;;;;;;14.90;99.90;;;;;;5073693;28;20162;-45
2023/09/05 06:03:11;;;;;;;;;;;14.90;99.90;;;;;;5073099;28;20007;-42
2023/09/05 06:05:37;;;;;;;;;;;14.90;99.90;;;;;;5074381;28;19970;-42
2023/09/05 06:08:03;;;;;;;;;;;15.00;99.90;;;;;;5073871;28;19920;-41
2023/09/05 06:10:28;;;;;;;;;;;15.00;99.90;;;;;;5074234;28;19999;-43
2023/09/05 06:12:54;;;;;;;;;;;15.00;99.90;;;;;;5068150;28;20305;-43
2023/09/05 06:15:19;;;;;;;;;;;15.00;99.90;;;;;;5074243;28;19916;-46
2023/09/05 06:17:45;;;;;;;;;;;15.10;99.90;;;;;;5073456;28;20383;-43
2023/09/05 06:20:11;;;;;;;;;;;15.10;99.90;;;;;;5068966;28;19912;-43
2023/09/05 06:22:38;;;;;;;;;;;15.20;99.90;;;;;;5072896;28;19913;-43
2023/09/05 06:25:05;;;;;;;;;;;15.20;99.90;;;;;;5072199;28;20377;-42
2023/09/05 06:27:31;;;;;;;;;;;15.20;99.90;;;;;;5073319;28;20012;-41
2023/09/05 06:29:56;;;;;;;;;;;15.30;99.90;;;;;;5074717;28;20016;-45
2023/09/05 06:32:22;;;;;;;;;;;15.30;99.90;;;;;;5073089;28;19912;-42
2023/09/05 06:34:47;;;;;;;;;;;15.40;99.90;;;;;;5073307;28;20397;-42
2023/09/05 06:37:13;;;;;;;;;;;15.50;99.90;;;;;;5074011;28;19912;-43
2023/09/05 06:39:38;;;;;;;;;;;15.60;99.90;;;;;;5074023;28;20261;-42
2023/09/05 06:42:08;;;;;;;;;;;15.70;99.90;;;;;;5073326;28;19924;-42
2023/09/05 06:44:33;;;;;;;;;;;15.70;99.90;;;;;;5073143;28;20395;-41
2023/09/05 06:46:59;;;;;;;;;;;15.80;99.90;;;;;;5072736;28;19961;-43
2023/09/05 06:49:24;;;;;;;;;;;15.90;99.90;;;;;;5073047;28;19920;-43
2023/09/05 06:51:50;;;;;;;;;;;16.00;99.90;;;;;;5072401;28;19942;-43
2023/09/05 06:54:15;;;;;;;;;;;16.00;99.90;;;;;;5072429;28;19913;-43
2023/09/05 06:56:40;;;;;;;;;;;16.10;99.90;;;;;;5072938;28;20437;-43
2023/09/05 06:59:16;;;;;;;;;;;16.20;99.90;;;;;;5073485;28;19919;-42
2023/09/05 07:01:42;;;;;;;;;;;16.30;99.90;;;;;;5062752;28;19995;-44
2023/09/05 07:04:08;;;;;;;;;;;16.30;99.90;;;;;;5068162;28;19948;-43
2023/09/05 07:06:33;;;;;;;;;;;16.40;99.90;;;;;;5074054;28;19970;-42
2023/09/05 07:08:59;;;;;;;;;;;16.50;99.90;;;;;;5072560;28;20386;-46
2023/09/05 07:11:24;;;;;;;;;;;16.60;99.90;;;;;;5072581;28;20458;-43
2023/09/05 07:13:50;;;;;;;;;;;16.70;99.90;;;;;;5072851;28;19920;-43
2023/09/05 07:16:15;;;;;;;;;;;16.80;99.90;;;;;;5072867;28;19912;-42
2023/09/05 07:18:41;;;;;;;;;;;17.00;99.90;;;;;;5071564;28;19919;-42
2023/09/05 07:21:06;;;;;;;;;;;17.10;99.90;;;;;;5065225;28;19977;-43
2023/09/05 07:23:32;;;;;;;;;;;17.20;99.90;;;;;;5057597;28;19919;-44
2023/09/05 07:26:02;;;;;;;;;;;17.30;99.90;;;;;;5061826;28;19958;-43
2023/09/05 07:28:28;;;;;;;;;;;17.50;99.90;;;;;;5059470;28;19929;-44
2023/09/05 07:30:53;;;;;;;;;;;17.60;99.90;;;;;;5069261;28;19917;-41
2023/09/05 07:33:19;;;;;;;;;;;17.70;99.90;;;;;;5059496;28;19948;-43
2023/09/05 07:35:44;;;;;;;;;;;17.80;99.90;;;;;;5065877;28;19913;-43
2023/09/05 07:38:12;;;;;;;;;;;17.90;99.90;;;;;;5069591;28;19923;-43
2023/09/05 07:40:38;;;;;;;;;;;18.00;99.90;;;;;;5069882;28;20389;-45
2023/09/05 07:43:03;;;;;;;;;;;18.20;99.90;;;;;;5062316;28;19920;-45
2023/09/05 07:45:29;;;;;;;;;;;18.30;99.90;;;;;;5067913;28;19913;-41
2023/09/05 07:47:54;;;;;;;;;;;18.40;99.90;;;;;;5066265;28;19964;-41
2023/09/05 07:50:20;;;;;;;;;;;18.60;99.90;;;;;;5071092;28;19916;-44
2023/09/05 07:52:47;;;;;;;;;;;18.70;99.90;;;;;;5072157;28;19958;-43
2023/09/05 07:55:12;;;;;;;;;;;18.80;99.90;;;;;;5059422;28;20344;-42
2023/09/05 07:57:38;;;;;;;;;;;18.90;99.90;;;;;;5070673;28;19912;-43
2023/09/05 08:00:03;;;;;;;;;;;19.10;99.90;;;;;;5066785;28;20383;-42
2023/09/05 08:02:29;;;;;;;;;;;19.20;99.90;;;;;;5062501;28;19920;-42
2023/09/05 08:04:56;;;;;;;;;;;19.30;99.90;;;;;;5064126;28;19952;-42
2023/09/05 08:07:21;;;;;;;;;;;19.40;99.90;;;;;;5068633;28;19917;-41
2023/09/05 08:09:47;;;;;;;;;;;19.50;99.90;;;;;;5075139;28;19927;-42
2023/09/05 08:12:13;;;;;;;;;;;19.60;99.90;;;;;;5072318;28;20302;-41
2023/09/05 08:14:38;;;;;;;;;;;19.70;99.90;;;;;;5071199;28;19921;-43
2023/09/05 08:17:04;;;;;;;;;;;19.80;99.90;;;;;;5064622;28;19913;-44
2023/09/05 08:19:29;;;;;;;;;;;19.90;99.90;;;;;;5059341;28;19912;-42
2023/09/05 08:21:55;;;;;;;;;;;19.90;99.90;;;;;;5057864;28;19940;-42
2023/09/05 08:24:20;;;;;;;;;;;20.00;99.90;;;;;;5068262;28;19920;-42
2023/09/05 08:26:46;;;;;;;;;;;20.10;99.90;;;;;;5070386;28;19952;-42
2023/09/05 08:29:13;;;;;;;;;;;20.20;99.90;;;;;;5061138;28;19952;-43
2023/09/05 08:31:39;;;;;;;;;;;20.30;99.90;;;;;;5077581;28;20007;-43
2023/09/05 08:34:04;;;;;;;;;;;20.50;99.90;;;;;;5061716;28;20008;-42
2023/09/05 08:36:31;;;;;;;;;;;20.60;99.90;;;;;;5069722;28;19916;-43
2023/09/05 08:38:57;;;;;;;;;;;20.70;99.90;;;;;;5069931;28;19912;-42
2023/09/05 08:41:23;;;;;;;;;;;20.80;99.90;;;;;;5079547;28;19912;-42
2023/09/05 08:43:48;;;;;;;;;;;20.90;99.90;;;;;;5075319;28;19921;-43
2023/09/05 08:46:14;;;;;;;;;;;21.00;99.90;;;;;;5075336;28;19919;-43
2023/09/05 08:48:40;;;;;;;;;;;21.20;99.90;;;;;;5075896;28;19929;-43
2023/09/05 08:51:08;;;;;;;;;;;21.30;99.90;;;;;;5075763;28;19920;-44
2023/09/05 08:53:36;;;;;;;;;;;21.40;99.90;;;;;;5070502;28;19919;-45
2023/09/05 08:56:01;;;;;;;;;;;21.50;99.90;;;;;;5075771;28;19964;-46
2023/09/05 08:58:27;;;;;;;;;;;21.60;99.90;;;;;;5075584;28;19954;-42
2023/09/05 09:00:52;;;;;;;;;;;21.70;99.90;;;;;;5076325;28;20410;-41
2023/09/05 09:03:18;;;;;;;;;;;21.80;99.90;;;;;;5075488;28;19912;-43
2023/09/05 09:05:46;;;;;;;;;;;21.90;99.90;;;;;;5071742;28;19971;-42
2023/09/05 09:08:12;;;;;;;;;;;22.00;99.90;;;;;;5075640;28;19924;-45
2023/09/05 09:10:38;;;;;;;;;;;22.10;99.90;;;;;;5075543;28;20409;-42
2023/09/05 09:13:13;;;;;;;;;;;22.30;99.90;;;;;;5056755;28;19908;-44
2023/09/05 09:15:39;;;;;;;;;;;22.40;99.90;;;;;;5068158;28;20002;-42
2023/09/05 09:18:09;;;;;;;;;;;22.50;99.90;;;;;;5068405;28;20371;-43
2023/09/05 09:20:42;;;;;;;;;;;22.60;99.90;;;;;;5070886;28;19959;-43
2023/09/05 09:23:07;;;;;;;;;;;22.70;99.90;;;;;;5071210;28;19912;-43
2023/09/05 09:25:33;;;;;;;;;;;22.80;99.90;;;;;;5075235;28;19920;-42
2023/09/05 09:27:58;;;;;;;;;;;22.90;99.90;;;;;;5074460;28;19924;-44
2023/09/05 09:30:29;;;;;;;;;;;23.00;99.90;;;;;;5067877;28;19912;-43
2023/09/05 09:32:54;;;;;;;;;;;23.10;99.90;;;;;;5062621;28;19963;-43
2023/09/05 09:35:20;;;;;;;;;;;23.20;99.90;;;;;;5075187;28;19912;-45
2023/09/05 09:37:46;;;;;;;;;;;23.30;99.90;;;;;;5071402;28;20481;-43
2023/09/05 09:40:12;;;;;;;;;;;23.30;99.90;;;;;;5075071;28;19928;-45
2023/09/05 09:42:37;;;;;;;;;;;23.40;99.90;;;;;;5071728;28;19935;-46
2023/09/05 09:45:08;;;;;;;;;;;23.50;99.90;;;;;;5065352;28;19924;-42
2023/09/05 09:47:34;;;;;;;;;;;23.60;99.90;;;;;;5073161;28;19916;-42
2023/09/05 09:50:02;;;;;;;;;;;23.60;99.90;;;;;;5074073;28;19988;-43
2023/09/05 09:52:30;;;;;;;;;;;23.70;99.90;;;;;;5074268;28;19913;-43
2023/09/05 09:54:56;;;;;;;;;;;23.80;99.90;;;;;;5070097;28;19920;-43
2023/09/05 09:57:28;;;;;;;;;;;23.90;99.90;;;;;;5073436;28;19919;-43
2023/09/05 09:59:58;;;;;;;;;;;24.00;99.90;;;;;;5072204;28;19924;-45
2023/09/05 10:02:24;;;;;;;;;;;24.10;99.90;;;;;;5071096;28;19995;-43
2023/09/05 10:04:51;;;;;;;;;;;24.20;99.90;;;;;;5071950;28;20007;-42
2023/09/05 10:07:18;;;;;;;;;;;24.30;99.90;;;;;;5067762;28;19912;-46
2023/09/05 10:09:44;;;;;;;;;;;24.40;99.90;;;;;;5068592;28;19935;-43
2023/09/05 10:12:10;;;;;;;;;;;24.50;99.90;;;;;;5070379;28;19999;-42
2023/09/05 10:14:37;;;;;;;;;;;24.50;99.90;;;;;;5073143;28;20486;-42
2023/09/05 10:17:03;;;;;;;;;;;24.60;99.90;;;;;;5072609;28;19916;-43
2023/09/05 10:19:29;;;;;;;;;;;24.80;99.90;;;;;;5071028;28;19920;-42
2023/09/05 10:21:55;;;;;;;;;;;24.80;99.90;;;;;;5066932;28;20332;-44
2023/09/05 10:24:23;;;;;;;;;;;24.90;99.90;;;;;;5070326;28;19920;-44
2023/09/05 10:26:48;;;;;;;;;;;25.00;99.90;;;;;;5072930;28;20381;-44
2023/09/05 10:29:33;;;;;;;;;;;25.10;99.90;;;;;;5071940;28;19921;-44
2023/09/05 10:31:59;;;;;;;;;;;25.10;99.90;;;;;;5071519;28;19969;-42
2023/09/05 10:35:01;;;;;;;;;;;25.20;99.90;;;;;;5070169;28;20006;-45
2023/09/05 10:37:37;;;;;;;;;;;25.30;99.90;;;;;;5070055;28;20375;-42
2023/09/05 10:40:13;;;;;;;;;;;25.40;99.90;;;;;;5070079;28;20058;-43
2023/09/05 10:42:56;;;;;;;;;;;25.50;99.90;;;;;;5068326;28;19913;-42
2023/09/05 10:45:22;;;;;;;;;;;25.60;99.90;;;;;;5064362;28;19920;-43
2023/09/05 10:47:49;;;;;;;;;;;25.60;99.90;;;;;;5069464;28;20287;-45
2023/09/05 10:50:19;;;;;;;;;;;25.70;99.90;;;;;;5071377;28;19913;-43
2023/09/05 10:52:49;;;;;;;;;;;25.80;99.90;;;;;;5071641;28;19913;-43
2023/09/05 10:55:21;;;;;;;;;;;25.90;99.90;;;;;;5071589;28;19913;-43
2023/09/05 10:57:50;;;;;;;;;;;26.00;99.90;;;;;;5072302;28;19957;-42
2023/09/05 11:00:26;;;;;;;;;;;26.00;99.90;;;;;;5071134;28;20275;-43
2023/09/05 11:02:53;;;;;;;;;;;26.10;99.90;;;;;;5065580;28;20007;-43
2023/09/05 11:05:19;;;;;;;;;;;26.20;99.90;;;;;;5069121;28;19956;-42
2023/09/05 11:07:45;;;;;;;;;;;26.30;99.90;;;;;;5066240;28;19912;-47
2023/09/05 11:10:24;;;;;;;;;;;26.30;99.90;;;;;;5067844;28;19969;-44
2023/09/05 11:12:50;;;;;;;;;;;26.40;99.90;;;;;;5073737;28;19913;-43
2023/09/05 11:15:31;;;;;;;;;;;26.50;99.90;;;;;;5065633;28;19913;-43
2023/09/05 11:18:00;;;;;;;;;;;26.60;99.90;;;;;;5064483;28;19951;-45
2023/09/05 11:20:39;;;;;;;;;;;26.70;99.90;;;;;;5070551;28;19959;-42
2023/09/05 11:23:30;;;;;;;;;;;26.70;99.90;;;;;;5068978;28;19913;-43
2023/09/05 11:26:02;;;;;;;;;;;26.80;99.90;;;;;;5065099;28;20003;-42
2023/09/05 11:28:27;;;;;;;;;;;26.90;99.90;;;;;;5072344;28;19927;-42
2023/09/05 11:31:02;;;;;;;;;;;27.00;99.90;;;;;;5072679;28;19917;-42
2023/09/05 11:33:28;;;;;;;;;;;27.10;99.90;;;;;;5072857;28;20284;-44
2023/09/05 11:35:54;;;;;;;;;;;27.10;99.90;;;;;;5073355;28;20391;-43
2023/09/05 11:38:20;;;;;;;;;;;27.20;99.90;;;;;;5072742;28;19920;-43
2023/09/05 11:40:57;;;;;;;;;;;27.30;99.90;;;;;;5070171;28;19919;-42
2023/09/05 11:43:23;;;;;;;;;;;27.40;99.90;;;;;;5070588;28;19924;-44
2023/09/05 11:45:52;;;;;;;;;;;27.50;99.90;;;;;;5072038;28;19969;-45
2023/09/05 11:48:18;;;;;;;;;;;27.50;99.90;;;;;;5072300;28;19942;-43
2023/09/05 11:50:44;;;;;;;;;;;27.60;99.90;;;;;;5072350;28;19924;-44
2023/09/05 11:53:13;;;;;;;;;;;27.60;99.90;;;;;;5070737;28;20208;-46
2023/09/05 11:55:40;;;;;;;;;;;27.60;99.90;;;;;;5069673;28;19939;-43
2023/09/05 11:58:06;;;;;;;;;;;27.70;99.90;;;;;;5072625;28;20374;-43
2023/09/05 12:00:35;;;;;;;;;;;27.80;99.90;;;;;;5072072;28;20010;-44
2023/09/05 12:03:01;;;;;;;;;;;27.90;99.90;;;;;;5065605;28;19926;-45
2023/09/05 12:05:26;;;;;;;;;;;27.90;99.90;;;;;;5059586;28;19913;-44
2023/09/05 12:07:53;;;;;;;;;;;27.90;99.90;;;;;;5068727;28;19936;-43
2023/09/05 12:10:18;;;;;;;;;;;27.90;99.90;;;;;;5063642;28;19934;-43
2023/09/05 12:12:54;;;;;;;;;;;27.90;99.90;;;;;;5064693;28;20359;-43
2023/09/05 12:15:33;;;;;;;;;;;27.90;99.90;;;;;;5062829;28;19970;-44
2023/09/05 12:18:03;;;;;;;;;;;28.00;99.90;;;;;;5068862;28;20679;-43
2023/09/05 12:20:29;;;;;;;;;;;28.00;99.90;;;;;;5069510;28;19913;-43
2023/09/05 12:22:55;;;;;;;;;;;28.10;99.90;;;;;;5061502;28;19958;-43
2023/09/05 12:25:24;;;;;;;;;;;28.20;99.90;;;;;;5065978;28;19924;-45
2023/09/05 12:27:50;;;;;;;;;;;28.30;99.90;;;;;;5066472;28;19912;-42
2023/09/05 12:30:25;;;;;;;;;;;28.30;99.90;;;;;;5069384;28;19912;-43
2023/09/05 12:33:00;;;;;;;;;;;28.30;99.90;;;;;;5066286;28;20159;-45
2023/09/05 12:35:26;;;;;;;;;;;28.40;99.90;;;;;;5065828;28;19920;-43
2023/09/05 12:37:55;;;;;;;;;;;28.50;99.90;;;;;;5068064;28;19920;-44
2023/09/05 12:40:22;;;;;;;;;;;28.50;99.90;;;;;;5067523;28;19913;-43
2023/09/05 12:42:49;;;;;;;;;;;28.60;99.90;;;;;;5064818;28;20438;-43
2023/09/05 12:45:15;;;;;;;;;;;28.80;99.90;;;;;;5066962;28;20702;-42
2023/09/05 12:47:41;;;;;;;;;;;28.90;99.90;;;;;;5065991;28;19942;-43
2023/09/05 12:50:12;;;;;;;;;;;29.00;99.90;;;;;;5065235;28;19969;-41
2023/09/05 12:52:38;;;;;;;;;;;29.20;99.90;;;;;;5061632;28;20267;-42
2023/09/05 12:55:04;;;;;;;;;;;29.40;99.90;;;;;;5061849;28;19912;-42
2023/09/05 12:57:29;;;;;;;;;;;29.60;99.90;;;;;;5068040;28;19920;-43
2023/09/05 12:59:55;;;;;;;;;;;29.90;99.90;;;;;;5065047;28;19920;-44
2023/09/05 13:02:21;;;;;;;;;;;30.10;99.90;;;;;;5060455;28;19995;-42
2023/09/05 13:04:46;;;;;;;;;;;30.30;99.90;;;;;;5070198;28;20279;-42
2023/09/05 13:07:12;;;;;;;;;;;30.50;99.90;;;;;;5063808;28;19940;-42
2023/09/05 13:09:37;;;;;;;;;;;30.70;99.90;;;;;;5069715;28;20019;-41
2023/09/05 13:12:03;;;;;;;;;;;30.90;99.90;;;;;;5066660;28;19917;-42
2023/09/05 13:14:28;;;;;;;;;;;31.20;99.90;;;;;;5066340;28;19922;-41
2023/09/05 13:16:55;;;;;;;;;;;31.40;99.90;;;;;;5066245;28;20005;-43
2023/09/05 13:19:21;;;;;;;;;;;31.70;99.90;;;;;;5058731;28;19919;-47
2023/09/05 13:21:46;;;;;;;;;;;31.90;99.90;;;;;;5067440;28;19913;-44
2023/09/05 13:24:12;;;;;;;;;;;32.20;99.90;;;;;;5062837;28;19917;-42
2023/09/05 13:26:37;;;;;;;;;;;32.40;99.90;;;;;;5064372;28;19916;-41
2023/09/05 13:29:03;;;;;;;;;;;32.70;99.90;;;;;;5072939;28;19932;-43
2023/09/05 13:31:29;;;;;;;;;;;32.80;99.90;;;;;;5070954;28;19920;-43
2023/09/05 13:33:54;;;;;;;;;;;33.10;99.90;;;;;;5070690;28;19917;-45
2023/09/05 13:36:20;;;;;;;;;;;33.30;99.90;;;;;;5073252;28;19912;-44
2023/09/05 13:38:45;;;;;;;;;;;33.40;99.90;;;;;;5074555;28;19913;-44
2023/09/05 13:41:11;;;;;;;;;;;33.70;99.30;;;;;;5062323;28;19916;-44
2023/09/05 13:43:36;;;;;;;;;;;33.80;98.80;;;;;;5070796;28;19935;-43
2023/09/05 13:46:02;;;;;;;;;;;34.00;99.40;;;;;;5067867;28;20346;-44
2023/09/05 13:48:27;;;;;;;;;;;34.10;98.60;;;;;;5074669;28;19920;-46
2023/09/05 13:50:52;;;;;;;;;;;34.30;97.40;;;;;;5074376;28;20353;-43
2023/09/05 13:53:19;;;;;;;;;;;34.40;97.20;;;;;;5074508;28;19927;-43
2023/09/05 13:55:46;;;;;;;;;;;34.50;97.20;;;;;;5071604;28;19932;-43
2023/09/05 13:58:11;;;;;;;;;;;34.60;97.10;;;;;;5068009;28;20287;-44
2023/09/05 14:00:37;;;;;;;;;;;34.80;96.10;;;;;;5062631;28;20335;-43
2023/09/05 14:03:02;;;;;;;;;;;34.90;96.30;;;;;;5073188;28;19932;-43
2023/09/05 14:05:28;;;;;;;;;;;35.10;96.30;;;;;;5075953;28;20464;-42
2023/09/05 14:07:53;;;;;;;;;;;35.20;95.30;;;;;;5075666;28;19909;-43
2023/09/05 14:10:19;;;;;;;;;;;35.50;94.30;;;;;;5075431;28;19916;-44
2023/09/05 14:12:44;;;;;;;;;;;35.60;93.60;;;;;;5075155;28;19930;-44